Startpagina
METAR-TAF:

METAR-TAF

Vliegvelden :

Győr, Hongarije

breedte: 47-37-28N, lengte: 017-48-49E, hoogte: 129 m

Actueel weer

Dit bericht is 27 minuten geleden gemaakt, om 01:45 UTC
Wind 6 kt uit het noordwesten
Temperatuur 3°C
Vochtigheid 75%
Druk 1020 hPa
Zicht 10 km of meer
geen wolken onder 1500 m en geen cumulonimbus

METAR: LHPR 260145Z AUTO 31006KT CAVOK 03/M01 Q1020

Tijdstip: 03:12 (02:12 UTC)

Verwachting

Dit bericht is 8 uur en het 57 minuten geleden gemaakt, om 17:15 UTC
Verwachting geldig van 25 om 18 UTC tot 26 om 03 UTC
Wind 14 kt uit het noordwesten
Zicht 10 km of meer
geen wolken onder 1500 m en geen cumulonimbus
Tijdelijke
van 25 om 18 UTC tot 25 om 22 UTC
Wind 22 kt uit het noordwesten met uitschieters tot 33 kt
Tijdelijke
van 25 om 20 UTC tot 26 om 03 UTC
Weinig wolken op 3000 ft
Gebroken wolken op 15000 ft

TAF: LHPR 251715Z 2518/2603 32014KT CAVOK TEMPO 2518/2522 32022G33KT TEMPO 2520/2603 FEW030 BKN150

Waarnemingen en weersverwachtingen van meer dan 4000 vliegvelden (METAR en TAF).

De beschikbare stations zijn de gele en rode punten op de kaart.

Ga met uw muis naar het station om de naam te zien.

Klik dan om waarnemingen en weersverwachtingen te zien.

kaart wijzigen: klik op de groene knoppen met een zwart kruis om in te zoomen, op de groene knop met een streepje om uit te zoomen of op de groene pijlen voor aangrenzende kaarten.


METAR-TAF: